createdAt,value
2022-12-27T00:02:20.641Z,2.10
2022-12-27T00:04:54.185Z,1.62
2022-12-27T00:07:26.306Z,2.10
2022-12-27T00:09:59.183Z,1.70
2022-12-27T00:12:32.895Z,1.90
2022-12-27T00:15:06.326Z,1.98
2022-12-27T00:17:38.228Z,1.85
2022-12-27T00:20:11.880Z,1.55
2022-12-27T00:22:44.017Z,1.55
2022-12-27T00:25:15.944Z,2.15
2022-12-27T00:27:47.983Z,1.17
2022-12-27T00:30:20.218Z,1.75
2022-12-27T00:32:52.316Z,1.40
2022-12-27T00:35:24.259Z,1.37
2022-12-27T00:37:56.160Z,2.08
2022-12-27T00:40:28.186Z,2.05
2022-12-27T00:43:00.190Z,2.10
2022-12-27T00:45:32.157Z,1.70
2022-12-27T00:48:04.179Z,2.25
2022-12-27T00:50:36.173Z,2.52
2022-12-27T00:53:08.951Z,3.08
2022-12-27T00:55:45.561Z,2.05
2022-12-27T00:58:17.434Z,2.20
2022-12-27T01:00:49.818Z,1.72
2022-12-27T01:03:21.920Z,2.80
2022-12-27T01:05:53.890Z,2.10
2022-12-27T01:08:25.840Z,1.90
2022-12-27T01:10:57.744Z,1.05
2022-12-27T01:13:30.086Z,1.72
2022-12-27T01:16:02.051Z,1.37
2022-12-27T01:18:34.660Z,2.10
2022-12-27T01:21:11.774Z,2.17
2022-12-27T01:23:44.289Z,2.20
2022-12-27T01:26:19.172Z,1.80
2022-12-27T01:28:52.449Z,2.20
2022-12-27T01:31:28.327Z,2.20
2022-12-27T01:34:01.455Z,2.05
2022-12-27T01:36:33.425Z,1.87
2022-12-27T01:39:05.578Z,2.00
2022-12-27T01:41:57.451Z,2.30
2022-12-27T01:44:45.720Z,2.05
2022-12-27T01:47:29.807Z,2.20
2022-12-27T01:50:22.437Z,2.22
2022-12-27T01:53:06.178Z,1.92
2022-12-27T01:58:13.929Z,2.15
2022-12-27T02:00:48.245Z,2.02
2022-12-27T02:03:23.215Z,2.33
2022-12-27T02:05:55.148Z,2.27
2022-12-27T02:08:46.761Z,2.33
2022-12-27T02:11:22.591Z,2.80
2022-12-27T02:13:54.596Z,2.72
2022-12-27T02:16:28.242Z,3.00
2022-12-27T02:19:00.205Z,3.00
2022-12-27T02:21:41.068Z,3.02
2022-12-27T02:24:24.816Z,3.45
2022-12-27T02:27:11.703Z,3.22
2022-12-27T02:29:55.314Z,3.70
2022-12-27T02:32:33.346Z,3.10
2022-12-27T02:35:20.038Z,2.85
2022-12-27T02:37:55.038Z,2.70
2022-12-27T02:40:47.749Z,3.70
2022-12-27T02:43:37.604Z,2.22
2022-12-27T02:46:42.313Z,2.45
2022-12-27T02:49:46.315Z,2.50
2022-12-27T02:53:08.062Z,3.10
2022-12-27T02:56:15.280Z,2.60
2022-12-27T02:58:56.481Z,3.00
2022-12-27T03:02:03.844Z,2.10
2022-12-27T03:04:55.683Z,2.15
2022-12-27T03:07:39.703Z,2.35
2022-12-27T03:10:37.844Z,2.98
2022-12-27T03:13:42.048Z,2.50
2022-12-27T03:16:25.857Z,3.58
2022-12-27T03:19:23.545Z,2.37
2022-12-27T03:22:13.433Z,2.45
2022-12-27T03:25:05.951Z,2.60
2022-12-27T03:27:39.867Z,2.58
2022-12-27T03:33:16.860Z,2.33
2022-12-27T03:36:24.058Z,2.35
2022-12-27T03:39:22.146Z,2.52
2022-12-27T03:42:23.232Z,1.87
2022-12-27T03:44:55.630Z,2.35
2022-12-27T03:47:51.878Z,4.05
2022-12-27T03:50:30.007Z,2.37
2022-12-27T03:53:10.565Z,2.33
2022-12-27T03:55:43.373Z,2.70
2022-12-27T03:58:15.653Z,2.95
2022-12-27T04:00:48.135Z,3.00
2022-12-27T04:03:20.734Z,2.98
2022-12-27T04:05:53.064Z,2.92
2022-12-27T04:08:42.652Z,2.65
2022-12-27T04:11:32.451Z,2.50
2022-12-27T04:14:22.903Z,2.67
2022-12-27T04:17:12.778Z,2.10
2022-12-27T04:20:02.976Z,1.65
2022-12-27T04:22:53.643Z,2.58
2022-12-27T04:25:43.321Z,1.85
2022-12-27T04:28:33.367Z,3.27
2022-12-27T04:31:23.461Z,2.30
2022-12-27T04:34:13.171Z,2.90
2022-12-27T04:36:45.365Z,2.85
2022-12-27T04:39:17.534Z,3.20
2022-12-27T04:42:08.194Z,3.00
2022-12-27T04:44:57.730Z,4.30
2022-12-27T04:47:49.337Z,3.62
2022-12-27T04:50:42.442Z,2.10
2022-12-27T04:53:35.547Z,3.30
2022-12-27T04:56:08.434Z,3.47
2022-12-27T04:58:42.539Z,3.12
2022-12-27T05:01:32.173Z,3.40
2022-12-27T05:04:05.449Z,3.12
2022-12-27T05:06:37.786Z,3.83
2022-12-27T05:09:27.872Z,3.37
2022-12-27T05:12:01.960Z,3.27
2022-12-27T05:14:34.134Z,3.12
2022-12-27T05:17:06.629Z,3.50
2022-12-27T05:19:39.251Z,2.65
2022-12-27T05:22:29.481Z,3.50
2022-12-27T05:25:18.898Z,4.08
2022-12-27T05:27:51.834Z,3.62
2022-12-27T05:30:23.885Z,3.80
2022-12-27T05:32:57.232Z,3.58
2022-12-27T05:35:30.935Z,3.37
2022-12-27T05:38:03.881Z,4.03
2022-12-27T05:40:36.694Z,3.85
2022-12-27T05:43:10.330Z,3.50
2022-12-27T05:45:43.673Z,3.83
2022-12-27T05:48:16.705Z,4.62
2022-12-27T05:50:49.018Z,3.70
2022-12-27T05:53:21.291Z,4.10
2022-12-27T05:55:58.893Z,4.55
2022-12-27T05:58:32.351Z,3.45
2022-12-27T06:01:07.778Z,4.80
2022-12-27T06:03:40.118Z,4.10
2022-12-27T06:06:13.415Z,4.55
2022-12-27T06:08:45.791Z,3.75
2022-12-27T06:11:20.555Z,4.20
2022-12-27T06:13:54.998Z,4.28
2022-12-27T06:16:28.584Z,4.42
2022-12-27T06:19:00.814Z,5.28
2022-12-27T06:21:33.103Z,3.90
2022-12-27T06:24:05.179Z,4.40
2022-12-27T06:26:37.286Z,4.70
2022-12-27T06:29:11.358Z,4.05
2022-12-27T06:31:43.987Z,6.05
2022-12-27T06:34:16.217Z,4.10
2022-12-27T06:36:50.107Z,4.60
2022-12-27T06:41:55.496Z,2.72
2022-12-27T06:44:27.893Z,4.85
2022-12-27T06:47:00.355Z,5.37
2022-12-27T06:49:32.822Z,4.78
2022-12-27T06:52:06.241Z,4.65
2022-12-27T06:54:38.472Z,5.33
2022-12-27T06:57:10.639Z,4.10
2022-12-27T06:59:42.651Z,5.45
2022-12-27T07:02:14.855Z,5.05
2022-12-27T07:04:47.265Z,5.53
2022-12-27T07:07:19.701Z,6.30
2022-12-27T07:09:51.978Z,5.30
2022-12-27T07:12:24.063Z,5.17
2022-12-27T07:14:56.600Z,6.00
2022-12-27T07:17:29.081Z,6.45
2022-12-27T07:20:01.499Z,3.92
2022-12-27T07:22:34.021Z,5.62
2022-12-27T07:25:06.749Z,5.75
2022-12-27T07:27:39.045Z,7.30
2022-12-27T07:30:11.790Z,5.40
2022-12-27T07:32:44.058Z,6.25
2022-12-27T07:35:16.237Z,5.62
2022-12-27T07:37:48.404Z,6.83
2022-12-27T07:40:21.113Z,6.33
2022-12-27T07:42:53.766Z,7.12
2022-12-27T07:45:25.904Z,6.28
2022-12-27T07:47:58.302Z,6.58
2022-12-27T07:50:30.845Z,6.35
2022-12-27T07:53:04.060Z,5.60
2022-12-27T07:55:36.405Z,7.70
2022-12-27T07:58:09.768Z,7.10
2022-12-27T08:00:42.034Z,5.78
2022-12-27T08:03:14.237Z,8.40
2022-12-27T08:05:52.492Z,5.97
2022-12-27T08:08:26.807Z,4.15
2022-12-27T08:11:05.176Z,5.42
2022-12-27T08:16:04.393Z,5.95
2022-12-27T08:18:37.633Z,5.42
2022-12-27T08:21:09.585Z,3.77
2022-12-27T08:23:41.768Z,4.75
2022-12-27T08:26:15.011Z,3.85
2022-12-27T08:28:47.537Z,4.37
2022-12-27T08:31:20.852Z,3.87
2022-12-27T08:33:58.303Z,5.83
2022-12-27T08:36:54.304Z,54.42
2022-12-27T08:39:02.489Z,6.83
2022-12-27T08:41:35.080Z,6.10
2022-12-27T08:44:07.878Z,5.33
2022-12-27T08:46:40.187Z,6.75
2022-12-27T08:49:12.463Z,5.90
2022-12-27T08:51:45.075Z,6.62
2022-12-27T08:54:17.263Z,6.15
2022-12-27T08:56:49.348Z,6.15
2022-12-27T08:59:21.484Z,6.90
2022-12-27T09:01:53.829Z,6.42
2022-12-27T09:04:26.521Z,2.58
2022-12-27T09:06:58.991Z,5.67
2022-12-27T09:09:31.333Z,6.40
2022-12-27T09:12:08.646Z,6.67
2022-12-27T09:14:39.236Z,6.47
2022-12-27T09:17:12.145Z,7.10
2022-12-27T09:19:44.307Z,6.17
2022-12-27T09:22:16.447Z,6.70
2022-12-27T09:24:48.819Z,5.87
2022-12-27T09:27:21.331Z,5.87
2022-12-27T09:29:53.556Z,5.85
2022-12-27T09:32:27.515Z,8.20
2022-12-27T09:37:32.114Z,5.97
2022-12-27T09:40:04.134Z,4.22
2022-12-27T09:43:06.237Z,6.92
2022-12-27T09:45:31.644Z,6.15
2022-12-27T09:48:19.132Z,5.28
2022-12-27T09:50:54.687Z,5.03
2022-12-27T09:53:29.837Z,5.30
2022-12-27T09:56:02.071Z,5.65
2022-12-27T09:58:53.124Z,6.03
2022-12-27T10:01:31.831Z,5.10
2022-12-27T10:04:07.230Z,5.75
2022-12-27T10:06:55.309Z,6.97
2022-12-27T10:09:37.238Z,5.22
2022-12-27T10:12:29.686Z,6.40
2022-12-27T10:15:31.038Z,5.83
2022-12-27T10:18:32.002Z,5.90
2022-12-27T10:21:18.800Z,7.42
2022-12-27T10:23:56.667Z,6.45
2022-12-27T10:26:29.503Z,7.80
2022-12-27T10:29:07.350Z,7.87
2022-12-27T10:31:42.900Z,7.10
2022-12-27T10:34:20.555Z,7.03
2022-12-27T10:36:55.068Z,8.45
2022-12-27T10:39:30.122Z,8.03
2022-12-27T10:42:30.380Z,6.85
2022-12-27T10:45:27.564Z,9.18
2022-12-27T10:48:36.364Z,6.97
2022-12-27T10:51:04.294Z,7.78
2022-12-27T10:53:48.397Z,8.58
2022-12-27T10:56:35.476Z,9.20
2022-12-27T10:59:22.396Z,8.23
2022-12-27T11:02:05.201Z,8.28
2022-12-27T11:04:40.791Z,8.95
2022-12-27T11:07:16.051Z,7.80
2022-12-27T11:09:51.387Z,9.40
2022-12-27T11:12:32.358Z,8.95
2022-12-27T11:15:21.065Z,7.90
2022-12-27T11:17:56.329Z,6.80
2022-12-27T11:20:36.328Z,9.63
2022-12-27T11:23:14.769Z,9.73
2022-12-27T11:26:00.960Z,9.93
2022-12-27T11:28:47.792Z,10.93
2022-12-27T11:31:23.590Z,9.60
2022-12-27T11:34:00.011Z,7.97
2022-12-27T11:36:38.027Z,11.60
2022-12-27T11:39:11.717Z,9.53
2022-12-27T11:44:34.505Z,9.25
2022-12-27T11:47:31.600Z,10.70
2022-12-27T11:50:30.499Z,12.45
2022-12-27T11:53:11.614Z,15.65
2022-12-27T11:55:50.653Z,13.68
2022-12-27T11:58:31.454Z,13.28
2022-12-27T12:01:15.223Z,13.30
2022-12-27T12:04:06.900Z,14.15
2022-12-27T12:06:47.550Z,12.53
2022-12-27T12:09:40.409Z,13.00
2022-12-27T12:12:40.840Z,12.70
2022-12-27T12:15:33.930Z,14.53
2022-12-27T12:18:20.942Z,13.45
2022-12-27T12:21:25.850Z,13.40
2022-12-27T12:24:15.587Z,13.15
2022-12-27T12:27:06.344Z,12.70
2022-12-27T12:29:54.216Z,14.13
2022-12-27T12:32:56.245Z,12.28
2022-12-27T12:35:42.991Z,13.05
2022-12-27T12:38:26.875Z,15.98
2022-12-27T12:43:53.335Z,11.97
2022-12-27T12:46:41.256Z,11.75
2022-12-27T12:49:28.249Z,12.53
2022-12-27T12:52:06.375Z,11.60
2022-12-27T12:54:57.918Z,10.75
2022-12-27T12:57:52.314Z,13.50
2022-12-27T13:00:43.644Z,11.20
2022-12-27T13:03:33.701Z,12.65
2022-12-27T13:06:37.272Z,12.93
2022-12-27T13:09:37.920Z,11.85
2022-12-27T13:12:29.142Z,11.85
2022-12-27T13:15:07.312Z,11.63
2022-12-27T13:17:59.159Z,8.93
2022-12-27T13:20:37.701Z,10.68
2022-12-27T13:23:34.753Z,13.32
2022-12-27T13:26:30.709Z,11.95
2022-12-27T13:29:21.640Z,9.88
2022-12-27T13:32:22.764Z,14.58
2022-12-27T13:35:09.704Z,18.07
2022-12-27T13:37:48.494Z,13.00
2022-12-27T13:40:46.316Z,12.37
2022-12-27T13:43:43.553Z,12.55
2022-12-27T13:46:22.083Z,12.95
2022-12-27T13:49:09.280Z,13.78
2022-12-27T13:51:50.565Z,12.58
2022-12-27T13:54:26.265Z,12.65
2022-12-27T13:57:32.861Z,15.18
2022-12-27T14:00:22.582Z,8.98
2022-12-27T14:03:09.642Z,12.00
2022-12-27T14:05:51.000Z,12.00
2022-12-27T14:08:44.412Z,10.60
2022-12-27T14:11:52.471Z,12.20
2022-12-27T14:14:28.014Z,11.55
2022-12-27T14:17:33.758Z,6.58
2022-12-27T14:20:20.870Z,11.10
2022-12-27T14:23:12.222Z,11.78
2022-12-27T14:26:19.968Z,11.95
2022-12-27T14:29:07.316Z,9.95
2022-12-27T14:32:00.215Z,11.60
2022-12-27T14:35:00.000Z,11.73
2022-12-27T14:37:47.779Z,10.65
2022-12-27T14:40:41.691Z,11.90
2022-12-27T14:43:19.352Z,13.17
2022-12-27T14:46:09.380Z,9.55
2022-12-27T14:49:12.879Z,12.23
2022-12-27T14:52:02.394Z,9.63
2022-12-27T14:54:49.516Z,13.38
2022-12-27T14:57:45.399Z,12.20
2022-12-27T15:00:29.386Z,11.18
2022-12-27T15:03:26.158Z,12.78
2022-12-27T15:08:45.011Z,11.95
2022-12-27T15:11:45.950Z,11.80
2022-12-27T15:14:44.833Z,12.23
2022-12-27T15:17:25.730Z,11.90
2022-12-27T15:20:07.316Z,12.73
2022-12-27T15:23:05.281Z,11.25
2022-12-27T15:26:04.474Z,12.25
2022-12-27T15:29:13.441Z,11.45
2022-12-27T15:31:51.206Z,10.75
2022-12-27T15:34:43.116Z,12.28
2022-12-27T15:37:49.818Z,11.73
2022-12-27T15:40:37.481Z,9.48
2022-12-27T15:43:24.368Z,11.63
2022-12-27T15:46:11.005Z,11.63
2022-12-27T15:49:02.166Z,12.53
2022-12-27T15:51:56.723Z,11.28
2022-12-27T15:54:53.950Z,7.78
2022-12-27T15:57:32.358Z,10.23
2022-12-27T16:00:19.438Z,11.48
2022-12-27T16:02:57.951Z,9.80
2022-12-27T16:05:52.836Z,5.28
2022-12-27T16:08:34.140Z,10.60
2022-12-27T16:11:12.158Z,9.95
2022-12-27T16:13:47.331Z,10.72
2022-12-27T16:16:40.343Z,10.15
2022-12-27T16:19:21.755Z,8.95
2022-12-27T16:21:54.243Z,11.70
2022-12-27T16:24:28.358Z,9.83
2022-12-27T16:27:03.474Z,11.48
2022-12-27T16:29:37.721Z,9.73
2022-12-27T16:32:18.996Z,10.72
2022-12-27T16:34:57.075Z,10.28
2022-12-27T16:37:32.636Z,8.38
2022-12-27T16:40:13.807Z,10.80
2022-12-27T16:43:01.921Z,9.35
2022-12-27T16:45:44.907Z,9.88
2022-12-27T16:48:38.157Z,10.18
2022-12-27T16:51:17.300Z,9.75
2022-12-27T16:53:55.470Z,9.78
2022-12-27T16:56:31.604Z,9.98
2022-12-27T16:59:03.964Z,6.83
2022-12-27T17:01:48.007Z,10.03
2022-12-27T17:04:52.024Z,11.45
2022-12-27T17:07:54.134Z,10.08
2022-12-27T17:10:32.834Z,9.53
2022-12-27T17:13:25.690Z,7.78
2022-12-27T17:16:20.405Z,10.03
2022-12-27T17:19:10.951Z,10.25
2022-12-27T17:21:45.401Z,9.83
2022-12-27T17:24:20.508Z,7.12
2022-12-27T17:27:24.114Z,9.95
2022-12-27T17:30:08.177Z,9.80
2022-12-27T17:33:00.863Z,10.10
2022-12-27T17:35:41.794Z,8.93
2022-12-27T17:38:19.747Z,11.43
2022-12-27T17:41:15.169Z,9.68
2022-12-27T17:44:10.149Z,10.15
2022-12-27T17:47:00.773Z,10.13
2022-12-27T17:49:33.810Z,10.45
2022-12-27T17:52:24.366Z,7.35
2022-12-27T17:55:16.867Z,9.53
2022-12-27T17:57:54.771Z,8.08
2022-12-27T18:00:29.870Z,9.05
2022-12-27T18:03:04.939Z,12.40
2022-12-27T18:05:39.869Z,9.60
2022-12-27T18:08:34.366Z,10.50
2022-12-27T18:11:11.295Z,10.08
2022-12-27T18:13:46.860Z,10.53
2022-12-27T18:16:25.035Z,11.15
2022-12-27T18:18:59.005Z,10.78
2022-12-27T18:24:03.525Z,10.18
2022-12-27T18:26:42.343Z,11.07
2022-12-27T18:29:15.106Z,12.50
2022-12-27T18:31:51.760Z,11.43
2022-12-27T18:34:30.249Z,10.88
2022-12-27T18:37:14.318Z,10.25
2022-12-27T18:39:59.528Z,8.18
2022-12-27T18:42:41.285Z,11.70
2022-12-27T18:45:26.484Z,10.80
2022-12-27T18:48:01.651Z,9.80
2022-12-27T18:50:35.486Z,11.18
2022-12-27T18:53:10.544Z,12.10
2022-12-27T18:55:45.386Z,9.93
2022-12-27T18:58:20.832Z,11.15
2022-12-27T19:01:07.591Z,12.90
2022-12-27T19:03:41.028Z,9.93
2022-12-27T19:06:14.939Z,10.58
2022-12-27T19:08:54.054Z,13.75
2022-12-27T19:11:34.580Z,11.05
2022-12-27T19:14:05.006Z,14.05
2022-12-27T19:16:37.175Z,12.78
2022-12-27T19:19:23.989Z,11.57
2022-12-27T19:21:56.381Z,9.48
2022-12-27T19:24:34.000Z,9.28
2022-12-27T19:27:19.165Z,8.35
2022-12-27T19:29:54.809Z,9.13
2022-12-27T19:32:33.456Z,11.10
2022-12-27T19:35:06.419Z,12.15
2022-12-27T19:37:38.719Z,6.15
2022-12-27T19:40:13.601Z,10.00
2022-12-27T19:42:45.646Z,10.43
2022-12-27T19:45:19.991Z,13.38
2022-12-27T19:47:52.798Z,9.33
2022-12-27T19:50:25.198Z,9.45
2022-12-27T19:52:57.366Z,8.93
2022-12-27T19:55:29.356Z,8.75
2022-12-27T19:58:01.314Z,8.55
2022-12-27T20:00:33.987Z,10.23
2022-12-27T20:03:06.488Z,10.70
2022-12-27T20:06:12.777Z,10.13
2022-12-27T20:08:35.751Z,9.55
2022-12-27T20:11:10.806Z,11.68
2022-12-27T20:13:43.166Z,10.20
2022-12-27T20:16:17.987Z,11.25
2022-12-27T20:18:50.240Z,9.28
2022-12-27T20:21:22.530Z,10.08
2022-12-27T20:23:54.513Z,10.23
2022-12-27T20:26:27.449Z,10.03
2022-12-27T20:29:00.548Z,10.35
2022-12-27T20:31:32.694Z,11.33
2022-12-27T20:34:05.282Z,10.18
2022-12-27T20:36:37.214Z,9.05
2022-12-27T20:39:09.742Z,9.93
2022-12-27T20:41:41.822Z,11.33
2022-12-27T20:44:15.213Z,10.38
2022-12-27T20:46:47.895Z,8.05
2022-12-27T20:49:19.804Z,10.00
2022-12-27T20:51:52.498Z,9.50
2022-12-27T20:54:24.794Z,9.65
2022-12-27T20:56:56.927Z,10.72
2022-12-27T20:59:29.351Z,11.70
2022-12-27T21:02:01.655Z,9.90
2022-12-27T21:04:33.814Z,8.83
2022-12-27T21:07:05.865Z,7.40
2022-12-27T21:09:37.941Z,9.40
2022-12-27T21:12:10.350Z,8.00
2022-12-27T21:14:42.295Z,8.68
2022-12-27T21:17:14.509Z,8.88
2022-12-27T21:19:46.626Z,9.78
2022-12-27T21:22:18.549Z,8.83
2022-12-27T21:24:50.503Z,8.25
2022-12-27T21:27:22.543Z,9.25
2022-12-27T21:29:54.678Z,10.15
2022-12-27T21:32:26.640Z,8.48
2022-12-27T21:34:58.544Z,8.98
2022-12-27T21:37:30.766Z,8.48
2022-12-27T21:40:02.957Z,8.85
2022-12-27T21:42:34.998Z,8.20
2022-12-27T21:45:07.461Z,7.92
2022-12-27T21:47:39.600Z,8.58
2022-12-27T21:50:11.722Z,8.75
2022-12-27T21:52:43.861Z,8.10
2022-12-27T21:55:15.778Z,9.20
2022-12-27T21:57:47.880Z,8.80
2022-12-27T22:00:20.060Z,8.48
2022-12-27T22:02:52.382Z,9.25
2022-12-27T22:05:24.903Z,8.13
2022-12-27T22:07:57.492Z,8.63
2022-12-27T22:10:30.266Z,8.45
2022-12-27T22:13:02.601Z,8.65
2022-12-27T22:15:34.797Z,8.98
2022-12-27T22:18:06.855Z,8.60
2022-12-27T22:20:45.077Z,8.05
2022-12-27T22:25:44.576Z,8.50
2022-12-27T22:28:16.518Z,7.53
2022-12-27T22:30:48.533Z,8.45
2022-12-27T22:33:21.196Z,9.48
2022-12-27T22:35:53.343Z,8.25
2022-12-27T22:38:25.230Z,8.75
2022-12-27T22:41:08.953Z,9.95
2022-12-27T22:43:42.720Z,7.87
2022-12-27T22:46:15.040Z,8.35
2022-12-27T22:48:52.542Z,9.83
2022-12-27T22:51:27.992Z,9.08
2022-12-27T22:54:01.154Z,8.73
2022-12-27T22:56:53.782Z,10.32
2022-12-27T22:59:26.025Z,9.93
2022-12-27T23:01:58.413Z,7.50
2022-12-27T23:04:31.021Z,9.48
2022-12-27T23:07:03.059Z,8.98
2022-12-27T23:09:42.577Z,8.58
2022-12-27T23:14:40.291Z,8.73
2022-12-27T23:17:12.372Z,9.10
2022-12-27T23:19:44.270Z,9.05
2022-12-27T23:22:16.210Z,9.40
2022-12-27T23:24:48.245Z,9.78
2022-12-27T23:27:20.418Z,9.13
2022-12-27T23:29:52.262Z,10.65
2022-12-27T23:32:24.249Z,7.95
2022-12-27T23:34:56.253Z,8.23
2022-12-27T23:37:28.374Z,9.83
2022-12-27T23:40:00.554Z,10.03
2022-12-27T23:42:33.352Z,10.23
2022-12-27T23:45:05.599Z,9.45
2022-12-27T23:47:37.423Z,8.93
2022-12-27T23:50:09.680Z,10.18
2022-12-27T23:52:41.533Z,8.95
2022-12-27T23:55:13.565Z,9.05
2022-12-27T23:57:45.354Z,8.88
